Time;durP1;ratioP1;P1;durP2;ratioP2;P2;SDS_P1;SDS_P2;PMS_P1;PMS_P2;Temp;Humidity;BMP_temperature;BMP_pressure;BME280_temperature;BME280_humidity;BME280_pressure;Samples;Min_cycle;Max_cycle;Signal;HPM_P1;HPM_P2
2021/10/07 00:00:21;;;;;;;2.33;1.60;;;;;;;;;;5065612;28;20178;-79
2021/10/07 00:02:47;;;;;;;2.80;1.90;;;;;;;;;;5063225;28;20463;-79
2021/10/07 00:05:13;;;;;;;2.10;1.90;;;;;;;;;;5046523;28;20446;-80
2021/10/07 00:07:39;;;;;;;5.53;1.83;;;;;;;;;;5047884;28;20206;-79
2021/10/07 00:10:06;;;;;;;5.20;2.08;;;;;;;;;;5050446;28;20185;-79
2021/10/07 00:12:32;;;;;;;3.40;1.80;;;;;;;;;;5064292;28;20216;-79
2021/10/07 00:14:58;;;;;;;2.60;1.70;;;;;;;;;;5064268;28;20527;-80
2021/10/07 00:17:24;;;;;;;4.70;2.08;;;;;;;;;;5048082;28;20189;-79
2021/10/07 00:19:50;;;;;;;4.28;2.13;;;;;;;;;;5045968;28;20193;-80
2021/10/07 00:22:16;;;;;;;2.67;2.00;;;;;;;;;;5048886;28;20177;-79
2021/10/07 00:24:42;;;;;;;3.30;1.90;;;;;;;;;;5051507;28;20193;-80
2021/10/07 00:27:08;;;;;;;4.45;1.98;;;;;;;;;;5050180;28;20211;-79
2021/10/07 00:29:40;;;;;;;5.05;1.90;;;;;;;;;;5060770;28;20177;-79
2021/10/07 00:32:12;;;;;;;3.45;1.80;;;;;;;;;;5045566;28;20291;-79
2021/10/07 00:39:55;;;;;;;6.05;2.65;;;;;;;;;;5049131;28;20197;-80
2021/10/07 00:42:21;;;;;;;3.05;1.70;;;;;;;;;;5063444;28;20212;-79
2021/10/07 00:44:47;;;;;;;2.85;1.67;;;;;;;;;;5048917;28;20220;-79
2021/10/07 00:47:14;;;;;;;4.13;1.85;;;;;;;;;;5060854;28;20205;-79
2021/10/07 00:49:40;;;;;;;6.72;2.00;;;;;;;;;;5045587;28;20201;-80
2021/10/07 00:52:07;;;;;;;5.53;1.90;;;;;;;;;;5060846;28;20197;-79
2021/10/07 00:54:33;;;;;;;5.25;1.95;;;;;;;;;;5052835;28;20177;-79
2021/10/07 00:57:01;;;;;;;3.58;1.90;;;;;;;;;;5048730;28;20196;-79
2021/10/07 00:59:27;;;;;;;6.38;2.03;;;;;;;;;;5062800;28;20196;-79
2021/10/07 01:01:53;;;;;;;4.85;1.80;;;;;;;;;;5046512;28;20170;-80
2021/10/07 01:04:19;;;;;;;2.15;1.80;;;;;;;;;;5048056;28;20178;-80
2021/10/07 01:06:45;;;;;;;2.88;1.90;;;;;;;;;;5064309;28;20210;-80
2021/10/07 01:09:11;;;;;;;7.05;1.98;;;;;;;;;;5064967;28;20178;-79
2021/10/07 01:11:38;;;;;;;2.87;2.03;;;;;;;;;;5060733;28;20265;-80
2021/10/07 01:14:04;;;;;;;3.10;1.83;;;;;;;;;;5045254;28;20512;-80
2021/10/07 01:16:30;;;;;;;3.33;1.90;;;;;;;;;;5058933;28;20235;-80
2021/10/07 01:18:56;;;;;;;4.55;1.60;;;;;;;;;;5052924;28;20211;-80
2021/10/07 01:21:22;;;;;;;3.63;2.28;;;;;;;;;;5054336;28;20174;-80
2021/10/07 01:23:49;;;;;;;2.85;1.60;;;;;;;;;;5048749;28;20216;-80
2021/10/07 01:26:18;;;;;;;2.72;2.03;;;;;;;;;;5045239;28;20258;-80
2021/10/07 01:28:45;;;;;;;4.43;1.58;;;;;;;;;;5044872;28;20174;-80
2021/10/07 01:31:11;;;;;;;8.32;2.33;;;;;;;;;;5049108;28;20432;-79
2021/10/07 01:33:38;;;;;;;5.88;1.98;;;;;;;;;;5048280;28;20190;-79
2021/10/07 01:36:04;;;;;;;5.75;1.73;;;;;;;;;;5063587;28;20194;-79
2021/10/07 01:38:30;;;;;;;3.15;1.80;;;;;;;;;;5063325;28;20181;-80
2021/10/07 01:40:56;;;;;;;4.38;2.10;;;;;;;;;;5045154;28;20253;-80
2021/10/07 01:43:23;;;;;;;5.75;1.70;;;;;;;;;;5061065;28;20251;-79
2021/10/07 01:45:49;;;;;;;3.00;1.75;;;;;;;;;;5051826;28;20213;-79
2021/10/07 01:48:16;;;;;;;4.65;1.70;;;;;;;;;;5063208;28;20205;-80
2021/10/07 01:50:42;;;;;;;3.92;1.67;;;;;;;;;;5050116;28;20185;-79
2021/10/07 01:53:08;;;;;;;3.75;1.90;;;;;;;;;;5063180;28;20444;-80
2021/10/07 01:55:34;;;;;;;5.07;1.80;;;;;;;;;;5050781;28;20243;-80
2021/10/07 01:58:00;;;;;;;4.43;1.80;;;;;;;;;;5052939;28;20432;-80
2021/10/07 02:00:26;;;;;;;3.80;1.50;;;;;;;;;;5068200;28;20450;-80
2021/10/07 02:02:52;;;;;;;2.53;1.80;;;;;;;;;;5066323;28;20181;-80
2021/10/07 02:05:18;;;;;;;3.87;1.50;;;;;;;;;;5064215;28;20188;-79
2021/10/07 02:07:44;;;;;;;4.65;1.70;;;;;;;;;;5065495;28;20872;-79
2021/10/07 02:10:15;;;;;;;3.60;1.50;;;;;;;;;;5052769;28;20616;-79
2021/10/07 02:12:42;;;;;;;4.35;1.75;;;;;;;;;;5052117;28;20181;-79
2021/10/07 02:15:08;;;;;;;3.55;2.10;;;;;;;;;;5071325;28;20181;-79
2021/10/07 02:17:34;;;;;;;2.45;1.80;;;;;;;;;;5063265;28;20189;-79
2021/10/07 02:20:00;;;;;;;2.55;1.85;;;;;;;;;;5047811;28;20178;-80
2021/10/07 02:22:26;;;;;;;3.72;2.03;;;;;;;;;;5051512;28;20189;-79
2021/10/07 02:24:52;;;;;;;2.42;1.58;;;;;;;;;;5051995;28;20192;-79
2021/10/07 02:27:18;;;;;;;3.97;1.90;;;;;;;;;;5067064;28;20561;-79
2021/10/07 02:29:44;;;;;;;4.18;1.83;;;;;;;;;;5064729;28;20740;-79
2021/10/07 02:32:10;;;;;;;3.83;1.70;;;;;;;;;;5062895;28;20178;-79
2021/10/07 02:34:36;;;;;;;5.07;1.93;;;;;;;;;;5048857;28;20432;-80
2021/10/07 02:37:02;;;;;;;1.93;1.70;;;;;;;;;;5050283;28;20421;-79
2021/10/07 02:39:28;;;;;;;5.15;2.03;;;;;;;;;;5066706;28;20440;-79
2021/10/07 02:41:54;;;;;;;4.82;1.95;;;;;;;;;;5051773;28;20219;-79
2021/10/07 02:44:20;;;;;;;3.20;1.97;;;;;;;;;;5048326;28;20218;-80
2021/10/07 02:46:46;;;;;;;5.78;2.25;;;;;;;;;;5062490;28;20462;-80
2021/10/07 02:49:12;;;;;;;2.05;1.50;;;;;;;;;;5051053;28;20178;-80
2021/10/07 02:51:38;;;;;;;3.60;1.45;;;;;;;;;;5066671;28;20221;-79
2021/10/07 02:54:04;;;;;;;4.40;2.08;;;;;;;;;;5066730;28;20190;-79
2021/10/07 02:56:30;;;;;;;4.50;2.70;;;;;;;;;;5069866;28;20189;-79
2021/10/07 02:58:56;;;;;;;5.40;2.65;;;;;;;;;;5046838;28;20542;-79
2021/10/07 03:01:23;;;;;;;2.10;1.77;;;;;;;;;;5050937;28;20188;-79
2021/10/07 03:03:49;;;;;;;2.55;2.10;;;;;;;;;;5056269;28;20442;-80
2021/10/07 03:06:15;;;;;;;8.67;2.30;;;;;;;;;;5056611;28;20690;-79
2021/10/07 03:08:41;;;;;;;5.50;1.90;;;;;;;;;;5063333;28;20435;-79
2021/10/07 03:11:07;;;;;;;5.53;2.35;;;;;;;;;;5047337;28;20204;-79
2021/10/07 03:13:33;;;;;;;3.05;1.85;;;;;;;;;;5049773;28;20200;-79
2021/10/07 03:15:59;;;;;;;4.47;2.00;;;;;;;;;;5066430;28;20224;-79
2021/10/07 03:18:25;;;;;;;3.23;1.97;;;;;;;;;;5066168;28;20479;-79
2021/10/07 03:20:51;;;;;;;3.63;2.10;;;;;;;;;;5064236;28;20447;-79
2021/10/07 03:23:17;;;;;;;2.75;2.00;;;;;;;;;;5063005;28;20853;-80
2021/10/07 03:25:43;;;;;;;6.03;2.13;;;;;;;;;;5048194;28;20200;-80
2021/10/07 03:28:09;;;;;;;5.47;2.30;;;;;;;;;;5051788;28;20445;-79
2021/10/07 03:30:35;;;;;;;2.17;1.70;;;;;;;;;;5051484;28;20527;-79
2021/10/07 03:33:05;;;;;;;5.75;2.65;;;;;;;;;;5069944;28;20178;-79
2021/10/07 03:35:31;;;;;;;3.58;2.03;;;;;;;;;;5048975;28;20262;-79
2021/10/07 03:37:57;;;;;;;2.50;1.60;;;;;;;;;;5056942;28;20178;-79
2021/10/07 03:40:23;;;;;;;3.83;1.80;;;;;;;;;;5049995;28;20181;-80
2021/10/07 03:42:49;;;;;;;3.37;1.93;;;;;;;;;;5049931;28;20925;-80
2021/10/07 03:45:15;;;;;;;9.83;2.13;;;;;;;;;;5052643;28;20443;-80
2021/10/07 03:47:41;;;;;;;9.73;2.13;;;;;;;;;;5062551;28;20688;-80
2021/10/07 03:50:07;;;;;;;10.30;2.47;;;;;;;;;;5060101;28;20961;-80
2021/10/07 03:52:33;;;;;;;3.40;2.10;;;;;;;;;;5049793;28;20436;-80
2021/10/07 03:54:59;;;;;;;4.78;2.05;;;;;;;;;;5050379;28;20181;-80
2021/10/07 03:57:26;;;;;;;5.15;2.00;;;;;;;;;;5050284;28;20178;-79
2021/10/07 03:59:52;;;;;;;3.85;2.10;;;;;;;;;;5066984;28;20185;-80
2021/10/07 04:02:18;;;;;;;3.05;1.80;;;;;;;;;;5061468;28;20691;-80
2021/10/07 04:04:44;;;;;;;5.93;2.20;;;;;;;;;;5047104;28;20174;-80
2021/10/07 04:07:11;;;;;;;3.47;2.15;;;;;;;;;;5050506;28;20574;-80
2021/10/07 04:09:37;;;;;;;6.00;2.50;;;;;;;;;;5050323;28;20185;-80
2021/10/07 04:12:03;;;;;;;6.05;2.25;;;;;;;;;;5065461;28;20197;-80
2021/10/07 04:14:29;;;;;;;3.00;2.00;;;;;;;;;;5055668;28;20185;-79
2021/10/07 04:16:55;;;;;;;3.65;1.85;;;;;;;;;;5046760;28;20178;-79
2021/10/07 04:19:22;;;;;;;2.97;2.15;;;;;;;;;;5048951;28;20182;-79
2021/10/07 04:21:48;;;;;;;5.40;2.35;;;;;;;;;;5055220;28;20177;-79
2021/10/07 04:24:14;;;;;;;5.10;2.22;;;;;;;;;;5057589;28;20190;-79
2021/10/07 04:26:41;;;;;;;4.60;2.20;;;;;;;;;;5049004;28;20208;-78
2021/10/07 04:29:07;;;;;;;4.80;1.90;;;;;;;;;;5060739;28;20267;-79
2021/10/07 04:31:33;;;;;;;4.60;2.40;;;;;;;;;;5059983;28;20256;-79
2021/10/07 04:33:59;;;;;;;3.65;2.20;;;;;;;;;;5061733;28;20184;-79
2021/10/07 04:36:25;;;;;;;3.90;2.22;;;;;;;;;;5056219;28;20192;-79
2021/10/07 04:38:51;;;;;;;5.27;2.27;;;;;;;;;;5066833;28;20189;-79
2021/10/07 04:41:17;;;;;;;4.53;2.28;;;;;;;;;;5067263;28;20447;-79
2021/10/07 04:43:43;;;;;;;4.18;3.00;;;;;;;;;;5048407;28;20700;-79
2021/10/07 04:46:09;;;;;;;8.60;3.28;;;;;;;;;;5049560;28;20225;-79
2021/10/07 04:48:36;;;;;;;6.00;3.25;;;;;;;;;;5064181;28;20170;-79
2021/10/07 04:51:02;;;;;;;6.32;2.28;;;;;;;;;;5048678;28;20249;-78
2021/10/07 04:53:28;;;;;;;5.85;2.60;;;;;;;;;;5049183;28;20196;-79
2021/10/07 04:55:58;;;;;;;6.93;2.72;;;;;;;;;;5045164;28;20688;-79
2021/10/07 04:58:24;;;;;;;5.07;2.72;;;;;;;;;;5051273;28;20216;-79
2021/10/07 05:00:50;;;;;;;4.38;2.20;;;;;;;;;;5050924;28;20245;-79
2021/10/07 05:03:16;;;;;;;2.85;1.95;;;;;;;;;;5048780;28;20196;-79
2021/10/07 05:05:43;;;;;;;5.32;2.97;;;;;;;;;;5048607;28;20200;-79
2021/10/07 05:08:09;;;;;;;4.40;2.53;;;;;;;;;;5044948;28;20263;-79
2021/10/07 05:10:35;;;;;;;4.72;1.90;;;;;;;;;;5047296;28;20539;-79
2021/10/07 05:13:01;;;;;;;5.78;2.45;;;;;;;;;;5063950;28;20208;-79
2021/10/07 05:15:27;;;;;;;5.32;3.17;;;;;;;;;;5049440;28;20725;-78
2021/10/07 05:17:53;;;;;;;8.27;2.50;;;;;;;;;;5048524;28;20204;-79
2021/10/07 05:20:20;;;;;;;3.75;2.38;;;;;;;;;;5046413;28;20212;-78
2021/10/07 05:22:46;;;;;;;6.53;2.40;;;;;;;;;;5057841;28;20291;-78
2021/10/07 05:25:12;;;;;;;5.40;2.22;;;;;;;;;;5051637;28;20181;-79
2021/10/07 05:27:38;;;;;;;6.45;2.65;;;;;;;;;;5055021;28;20208;-79
2021/10/07 05:30:05;;;;;;;5.75;2.25;;;;;;;;;;5055924;28;20177;-79
2021/10/07 05:32:31;;;;;;;5.47;2.70;;;;;;;;;;5051837;28;20236;-78
2021/10/07 05:34:59;;;;;;;7.78;3.17;;;;;;;;;;5049332;28;20231;-79
2021/10/07 05:37:25;;;;;;;3.55;1.80;;;;;;;;;;5051530;28;20170;-79
2021/10/07 05:39:51;;;;;;;3.15;2.20;;;;;;;;;;5053353;28;20185;-79
2021/10/07 05:42:17;;;;;;;4.03;2.40;;;;;;;;;;5052600;28;20208;-78
2021/10/07 05:44:43;;;;;;;5.07;2.50;;;;;;;;;;5073063;28;20213;-78
2021/10/07 05:47:09;;;;;;;3.15;2.25;;;;;;;;;;5048787;28;20280;-78
2021/10/07 05:49:35;;;;;;;3.70;2.60;;;;;;;;;;5054943;28;20200;-79
2021/10/07 05:52:01;;;;;;;5.80;2.78;;;;;;;;;;5053189;28;20178;-78
2021/10/07 05:54:27;;;;;;;5.82;2.83;;;;;;;;;;5067738;28;20217;-78
2021/10/07 05:56:54;;;;;;;5.35;2.58;;;;;;;;;;5052876;28;20271;-78
2021/10/07 05:59:20;;;;;;;5.80;4.45;;;;;;;;;;5049673;28;20181;-78
2021/10/07 06:01:46;;;;;;;3.33;2.20;;;;;;;;;;5050123;28;20182;-79
2021/10/07 06:04:12;;;;;;;4.90;2.50;;;;;;;;;;5051828;28;20492;-78
2021/10/07 06:06:38;;;;;;;3.27;2.87;;;;;;;;;;5052561;28;20209;-78
2021/10/07 06:09:07;;;;;;;5.30;2.58;;;;;;;;;;5052380;28;20508;-78
2021/10/07 06:11:33;;;;;;;4.78;2.75;;;;;;;;;;5062209;28;20184;-79
2021/10/07 06:13:59;;;;;;;3.63;2.73;;;;;;;;;;5052565;28;20189;-79
2021/10/07 06:16:25;;;;;;;6.63;3.20;;;;;;;;;;5055143;28;20555;-80
2021/10/07 06:18:51;;;;;;;4.47;2.63;;;;;;;;;;5051648;28;20507;-80
2021/10/07 06:21:17;;;;;;;5.70;3.25;;;;;;;;;;5062933;28;20189;-81
2021/10/07 06:23:43;;;;;;;7.77;3.20;;;;;;;;;;5059278;28;20204;-81
2021/10/07 06:26:10;;;;;;;4.43;3.15;;;;;;;;;;5063407;28;20470;-81
2021/10/07 06:28:36;;;;;;;6.25;2.90;;;;;;;;;;5063528;28;20173;-80
2021/10/07 06:31:02;;;;;;;8.77;3.60;;;;;;;;;;5064405;28;20181;-80
2021/10/07 06:33:28;;;;;;;3.78;2.65;;;;;;;;;;5064372;28;20264;-80
2021/10/07 06:35:56;;;;;;;5.78;2.80;;;;;;;;;;5064315;28;20193;-80
2021/10/07 06:38:22;;;;;;;9.38;3.33;;;;;;;;;;5061979;28;20181;-80
2021/10/07 06:40:48;;;;;;;9.13;3.00;;;;;;;;;;5061695;28;20174;-80
2021/10/07 06:43:14;;;;;;;9.87;4.00;;;;;;;;;;5064492;28;20459;-80
2021/10/07 06:45:40;;;;;;;3.13;2.33;;;;;;;;;;5063699;28;20517;-80
2021/10/07 06:48:06;;;;;;;4.68;2.60;;;;;;;;;;5064140;28;20200;-80
2021/10/07 06:50:34;;;;;;;3.88;2.85;;;;;;;;;;5063109;28;20196;-80
2021/10/07 06:53:00;;;;;;;7.80;2.70;;;;;;;;;;5061799;28;20243;-80
2021/10/07 06:55:26;;;;;;;5.43;2.20;;;;;;;;;;5064469;28;20169;-80
2021/10/07 06:57:52;;;;;;;7.97;3.05;;;;;;;;;;5051813;28;20185;-81
2021/10/07 07:00:18;;;;;;;4.20;2.90;;;;;;;;;;5055568;28;20675;-81
2021/10/07 07:02:44;;;;;;;5.40;2.60;;;;;;;;;;5059653;28;20436;-81
2021/10/07 07:05:10;;;;;;;9.80;3.17;;;;;;;;;;5062019;28;20186;-81
2021/10/07 07:07:36;;;;;;;6.00;2.60;;;;;;;;;;5062814;28;20462;-81
2021/10/07 07:10:04;;;;;;;5.05;3.10;;;;;;;;;;5060466;28;20188;-82
2021/10/07 07:12:30;;;;;;;6.38;3.58;;;;;;;;;;5058858;28;20232;-81
2021/10/07 07:14:56;;;;;;;7.78;3.00;;;;;;;;;;5059445;28;20719;-82
2021/10/07 07:17:21;;;;;;;14.85;3.85;;;;;;;;;;5060004;28;20223;-82
2021/10/07 07:19:48;;;;;;;7.13;3.47;;;;;;;;;;5060352;28;20271;-82
2021/10/07 07:22:16;;;;;;;4.05;2.25;;;;;;;;;;5064252;28;20459;-82
2021/10/07 07:24:42;;;;;;;8.98;2.95;;;;;;;;;;5062084;28;20181;-80
2021/10/07 07:27:08;;;;;;;5.43;3.25;;;;;;;;;;5063242;28;20201;-82
2021/10/07 07:29:34;;;;;;;4.47;2.53;;;;;;;;;;5061714;28;20177;-83
2021/10/07 07:32:00;;;;;;;4.93;2.40;;;;;;;;;;5058231;28;20190;-83
2021/10/07 07:34:27;;;;;;;3.60;2.70;;;;;;;;;;5059311;28;20185;-83
2021/10/07 07:36:53;;;;;;;7.03;2.60;;;;;;;;;;5063191;28;20177;-82
2021/10/07 07:39:19;;;;;;;5.35;2.35;;;;;;;;;;5056688;28;20264;-83
2021/10/07 07:41:45;;;;;;;3.42;2.33;;;;;;;;;;5064446;28;20181;-83
2021/10/07 07:44:11;;;;;;;2.80;2.50;;;;;;;;;;5061584;28;20255;-82
2021/10/07 07:46:37;;;;;;;6.07;2.70;;;;;;;;;;5057861;28;20201;-82
2021/10/07 07:49:04;;;;;;;6.90;2.80;;;;;;;;;;5054953;28;20169;-83
2021/10/07 07:51:33;;;;;;;9.70;3.33;;;;;;;;;;5060520;28;20432;-82
2021/10/07 07:53:59;;;;;;;4.30;3.13;;;;;;;;;;5075166;28;20970;-82
2021/10/07 07:56:25;;;;;;;4.10;2.75;;;;;;;;;;5068717;28;20201;-82
2021/10/07 07:58:53;;;;;;;7.20;3.00;;;;;;;;;;5062249;28;20181;-82
2021/10/07 08:01:19;;;;;;;6.30;3.15;;;;;;;;;;5063812;28;20422;-82
2021/10/07 08:03:45;;;;;;;5.32;3.10;;;;;;;;;;5052711;28;20447;-82
2021/10/07 08:06:11;;;;;;;7.70;4.50;;;;;;;;;;5050130;28;20209;-82
2021/10/07 08:08:37;;;;;;;12.30;3.97;;;;;;;;;;5053461;28;20181;-82
2021/10/07 08:11:03;;;;;;;9.37;3.73;;;;;;;;;;5061851;28;23972;-82
2021/10/07 08:13:29;;;;;;;14.57;3.75;;;;;;;;;;5048425;28;20416;-82
2021/10/07 08:15:55;;;;;;;5.50;3.30;;;;;;;;;;5049241;28;20212;-82
2021/10/07 08:18:21;;;;;;;10.15;3.10;;;;;;;;;;5049268;28;20428;-82
2021/10/07 08:20:51;;;;;;;8.07;3.17;;;;;;;;;;5049480;28;20239;-82
2021/10/07 08:23:17;;;;;;;6.53;3.78;;;;;;;;;;5062227;28;20178;-82
2021/10/07 08:25:43;;;;;;;10.63;3.30;;;;;;;;;;5047910;28;20162;-82
2021/10/07 08:28:10;;;;;;;5.22;3.20;;;;;;;;;;5059288;28;20169;-82
2021/10/07 08:30:36;;;;;;;7.50;3.22;;;;;;;;;;5053661;28;20178;-82
2021/10/07 08:33:03;;;;;;;9.98;3.92;;;;;;;;;;5050229;28;20192;-82
2021/10/07 08:35:29;;;;;;;8.95;4.00;;;;;;;;;;5063247;28;20181;-82
2021/10/07 08:37:55;;;;;;;4.75;3.55;;;;;;;;;;5047227;28;20200;-83
2021/10/07 08:40:21;;;;;;;10.40;4.53;;;;;;;;;;5048610;28;20185;-82
2021/10/07 08:42:47;;;;;;;10.20;3.93;;;;;;;;;;5048819;28;20189;-82
2021/10/07 08:45:13;;;;;;;7.18;4.60;;;;;;;;;;5049947;28;20441;-82
2021/10/07 08:47:40;;;;;;;10.98;3.67;;;;;;;;;;5049755;28;20216;-82
2021/10/07 08:50:07;;;;;;;6.82;3.55;;;;;;;;;;5060393;28;20593;-83
2021/10/07 08:52:33;;;;;;;6.85;3.58;;;;;;;;;;5060446;28;20169;-82
2021/10/07 08:55:00;;;;;;;3.87;2.40;;;;;;;;;;5051130;28;20236;-83
2021/10/07 08:57:26;;;;;;;7.35;2.88;;;;;;;;;;5064841;28;20429;-82
2021/10/07 08:59:52;;;;;;;8.20;2.63;;;;;;;;;;5049079;28;20193;-82
2021/10/07 09:02:32;;;;;;;7.95;2.25;;;;;;;;;;5060921;28;20436;-82
2021/10/07 09:05:06;;;;;;;6.38;2.30;;;;;;;;;;5044391;28;20635;-82
2021/10/07 09:07:32;;;;;;;6.35;3.05;;;;;;;;;;5048757;28;20205;-83
2021/10/07 09:09:58;;;;;;;10.10;3.30;;;;;;;;;;5048618;28;20193;-83
2021/10/07 09:12:24;;;;;;;8.88;3.38;;;;;;;;;;5048887;28;20218;-83
2021/10/07 09:14:51;;;;;;;8.07;2.83;;;;;;;;;;5062960;28;20247;-83
2021/10/07 09:17:19;;;;;;;7.57;2.50;;;;;;;;;;5046338;28;20195;-84
2021/10/07 09:19:46;;;;;;;9.80;2.60;;;;;;;;;;5046315;28;20204;-83
2021/10/07 09:22:13;;;;;;;5.03;2.30;;;;;;;;;;5049241;28;20181;-83
2021/10/07 09:24:41;;;;;;;6.18;2.13;;;;;;;;;;5064251;28;20661;-83
2021/10/07 09:27:12;;;;;;;8.25;2.55;;;;;;;;;;5063858;28;20212;-82
2021/10/07 09:29:39;;;;;;;5.53;1.80;;;;;;;;;;5048084;28;20184;-82
2021/10/07 09:32:06;;;;;;;4.10;1.90;;;;;;;;;;5045042;28;20245;-83
2021/10/07 09:34:38;;;;;;;2.67;1.75;;;;;;;;;;5046742;28;20178;-82
2021/10/07 09:37:24;;;;;;;8.45;4.07;;;;;;;;;;5070044;28;20172;-83
2021/10/07 09:39:52;;;;;;;6.93;3.58;;;;;;;;;;5059698;28;20189;-84
2021/10/07 09:42:19;;;;;;;7.32;3.58;;;;;;;;;;5055676;28;20209;-85
2021/10/07 09:45:03;;;;;;;10.32;3.28;;;;;;;;;;5048662;28;20256;-84
2021/10/07 09:47:31;;;;;;;5.38;2.63;;;;;;;;;;5062734;28;20207;-83
2021/10/07 09:50:17;;;;;;;5.40;2.10;;;;;;;;;;5056624;28;20549;-83
2021/10/07 09:52:44;;;;;;;9.18;2.80;;;;;;;;;;5057077;28;20182;-83
2021/10/07 09:55:15;;;;;;;5.65;2.83;;;;;;;;;;5055296;28;20185;-83
2021/10/07 09:57:51;;;;;;;9.70;2.85;;;;;;;;;;5049192;28;20217;-83
2021/10/07 10:00:18;;;;;;;10.27;3.08;;;;;;;;;;5052419;28;20204;-83
2021/10/07 10:02:44;;;;;;;8.77;3.05;;;;;;;;;;5060338;28;20187;-83
2021/10/07 10:05:12;;;;;;;8.32;2.28;;;;;;;;;;5052373;28;20197;-87
2021/10/07 10:07:38;;;;;;;6.25;2.42;;;;;;;;;;5062357;28;20251;-86
2021/10/07 10:10:07;;;;;;;5.82;2.38;;;;;;;;;;5049931;28;20183;-84
2021/10/07 10:12:33;;;;;;;23.23;3.28;;;;;;;;;;5056893;28;20373;-83
2021/10/07 10:15:01;;;;;;;7.30;2.75;;;;;;;;;;5058315;28;20205;-84
2021/10/07 10:17:27;;;;;;;5.53;2.40;;;;;;;;;;5063821;28;20197;-86
2021/10/07 10:19:54;;;;;;;9.98;2.35;;;;;;;;;;5060021;28;20196;-84
2021/10/07 10:22:21;;;;;;;4.65;2.17;;;;;;;;;;5063072;28;20184;-84
2021/10/07 10:24:48;;;;;;;4.85;1.90;;;;;;;;;;5059565;28;20188;-84
2021/10/07 10:27:14;;;;;;;3.45;1.67;;;;;;;;;;5054035;28;20201;-84
2021/10/07 10:29:40;;;;;;;44.43;7.17;;;;;;;;;;5055832;28;20203;-86
2021/10/07 10:32:06;;;;;;;7.10;2.30;;;;;;;;;;5055625;28;20447;-84
2021/10/07 10:34:43;;;;;;;13.80;2.60;;;;;;;;;;5060649;28;20431;-80
2021/10/07 10:37:10;;;;;;;7.32;2.15;;;;;;;;;;5060704;28;20422;-80
2021/10/07 10:39:37;;;;;;;11.15;2.20;;;;;;;;;;5056866;28;20185;-86
2021/10/07 10:42:07;;;;;;;5.15;2.17;;;;;;;;;;5067111;28;20434;-84
2021/10/07 10:44:37;;;;;;;6.15;2.08;;;;;;;;;;5050430;28;20257;-86
2021/10/07 10:47:06;;;;;;;18.52;5.95;;;;;;;;;;5056651;28;20211;-86
2021/10/07 10:49:36;;;;;;;137.07;59.47;;;;;;;;;;5052621;28;20178;-85
2021/10/07 10:52:10;;;;;;;179.68;71.18;;;;;;;;;;5053840;28;20227;-84
2021/10/07 10:54:42;;;;;;;142.10;47.92;;;;;;;;;;5062148;28;20195;-85
2021/10/07 10:57:08;;;;;;;299.35;88.88;;;;;;;;;;5062314;28;20178;-86
2021/10/07 10:59:37;;;;;;;254.90;69.03;;;;;;;;;;5055768;28;20188;-85
2021/10/07 11:02:15;;;;;;;14.85;5.78;;;;;;;;;;5058589;28;20189;-85
2021/10/07 11:04:45;;;;;;;258.40;85.80;;;;;;;;;;5049769;28;20189;-85
2021/10/07 11:07:18;;;;;;;135.25;55.22;;;;;;;;;;5055787;28;20300;-87
2021/10/07 11:09:54;;;;;;;121.18;46.67;;;;;;;;;;5052185;28;20713;-87
2021/10/07 11:12:20;;;;;;;8.93;3.28;;;;;;;;;;5055039;28;20188;-87
2021/10/07 11:14:46;;;;;;;91.30;41.50;;;;;;;;;;5057712;28;20192;-87
2021/10/07 11:17:14;;;;;;;40.30;19.50;;;;;;;;;;5051468;28;24750;-85
2021/10/07 11:19:40;;;;;;;452.58;145.07;;;;;;;;;;5060506;28;20643;-86
2021/10/07 11:22:07;;;;;;;163.65;60.80;;;;;;;;;;5050059;28;20209;-84
2021/10/07 11:24:33;;;;;;;5.28;2.00;;;;;;;;;;5053190;28;20193;-83
2021/10/07 11:26:59;;;;;;;4.50;2.10;;;;;;;;;;5061202;28;20215;-82
2021/10/07 11:29:25;;;;;;;8.67;2.03;;;;;;;;;;5055353;28;20184;-84
2021/10/07 11:31:51;;;;;;;6.63;2.53;;;;;;;;;;5059211;28;20430;-85
2021/10/07 11:34:17;;;;;;;3.77;1.87;;;;;;;;;;5056793;28;20490;-83
2021/10/07 11:36:43;;;;;;;6.45;2.20;;;;;;;;;;5058560;28;20432;-85
2021/10/07 11:39:09;;;;;;;3.03;1.70;;;;;;;;;;5057969;28;20185;-88
2021/10/07 11:41:35;;;;;;;5.00;1.67;;;;;;;;;;5055701;28;20218;-87
2021/10/07 11:44:02;;;;;;;5.57;2.55;;;;;;;;;;5062906;28;20463;-87
2021/10/07 11:46:28;;;;;;;6.07;1.90;;;;;;;;;;5052859;28;20284;-87
2021/10/07 11:48:55;;;;;;;6.57;2.13;;;;;;;;;;5065176;28;20197;-87
2021/10/07 11:51:26;;;;;;;4.90;1.63;;;;;;;;;;5054847;28;20379;-83
2021/10/07 11:53:54;;;;;;;5.85;2.03;;;;;;;;;;5053203;28;20188;-84
2021/10/07 11:56:24;;;;;;;6.07;2.45;;;;;;;;;;5047604;28;20182;-84
2021/10/07 11:58:56;;;;;;;7.60;2.38;;;;;;;;;;5071261;28;20178;-87
2021/10/07 12:01:22;;;;;;;2.60;1.70;;;;;;;;;;5049042;28;20188;-86
2021/10/07 12:03:49;;;;;;;3.85;1.65;;;;;;;;;;5056913;28;20212;-87
2021/10/07 12:06:16;;;;;;;6.55;2.10;;;;;;;;;;5061396;28;20224;-86
2021/10/07 12:08:46;;;;;;;5.47;2.10;;;;;;;;;;5059580;28;20193;-87
2021/10/07 12:11:17;;;;;;;9.07;1.80;;;;;;;;;;5061978;28;20196;-86
2021/10/07 12:13:48;;;;;;;7.68;2.03;;;;;;;;;;5064334;28;20169;-89
2021/10/07 12:16:17;;;;;;;4.50;1.83;;;;;;;;;;5062835;28;20608;-78
2021/10/07 12:18:43;;;;;;;6.95;2.80;;;;;;;;;;5056315;28;20180;-87
2021/10/07 12:21:09;;;;;;;2.50;1.65;;;;;;;;;;5056942;28;20186;-86
2021/10/07 12:23:56;;;;;;;7.40;2.33;;;;;;;;;;5060753;28;20201;-87
2021/10/07 12:26:25;;;;;;;7.72;2.03;;;;;;;;;;5067290;28;20456;-87
2021/10/07 12:28:52;;;;;;;3.13;1.80;;;;;;;;;;5053328;28;20176;-88
2021/10/07 12:31:25;;;;;;;4.15;1.40;;;;;;;;;;5057838;28;20234;-89
2021/10/07 12:33:56;;;;;;;2.95;1.65;;;;;;;;;;5075136;28;20187;-89
2021/10/07 12:36:22;;;;;;;2.95;1.40;;;;;;;;;;5061182;28;20188;-88
2021/10/07 12:38:54;;;;;;;2.80;1.40;;;;;;;;;;5062207;28;20229;-88
2021/10/07 12:41:31;;;;;;;4.40;1.30;;;;;;;;;;5062433;28;20195;-89
2021/10/07 12:43:58;;;;;;;2.80;1.75;;;;;;;;;;5076232;28;20291;-87
2021/10/07 12:46:25;;;;;;;3.22;1.27;;;;;;;;;;5063590;28;20215;-88
2021/10/07 12:48:52;;;;;;;4.70;1.70;;;;;;;;;;5062470;28;20177;-88
2021/10/07 12:51:20;;;;;;;5.90;1.42;;;;;;;;;;5055711;28;20190;-87
2021/10/07 12:53:46;;;;;;;4.35;1.60;;;;;;;;;;5061419;28;20463;-87
2021/10/07 12:56:14;;;;;;;5.00;1.48;;;;;;;;;;5063723;28;20183;-88
2021/10/07 12:58:54;;;;;;;3.92;1.25;;;;;;;;;;5062886;28;20530;-89
2021/10/07 13:01:21;;;;;;;5.55;1.90;;;;;;;;;;5063974;28;20175;-85
2021/10/07 13:03:47;;;;;;;4.88;1.77;;;;;;;;;;5062554;28;20191;-88
2021/10/07 13:06:29;;;;;;;5.22;1.90;;;;;;;;;;5061811;28;20611;-86
2021/10/07 13:08:59;;;;;;;5.95;1.83;;;;;;;;;;5061239;28;20183;-88
2021/10/07 13:11:25;;;;;;;2.78;1.73;;;;;;;;;;5063060;28;20181;-88
2021/10/07 13:13:51;;;;;;;2.23;1.27;;;;;;;;;;5061604;28;20180;-86
2021/10/07 13:16:18;;;;;;;5.18;1.70;;;;;;;;;;5062529;28;20433;-87
2021/10/07 13:18:44;;;;;;;4.95;1.95;;;;;;;;;;5062535;28;20183;-87
2021/10/07 13:21:10;;;;;;;3.88;2.00;;;;;;;;;;5061830;28;20189;-87
2021/10/07 13:23:36;;;;;;;5.18;2.10;;;;;;;;;;5062062;28;20205;-87
2021/10/07 13:26:06;;;;;;;4.97;1.93;;;;;;;;;;5061015;28;20189;-86
2021/10/07 13:28:32;;;;;;;4.68;1.85;;;;;;;;;;5064585;28;20408;-88
2021/10/07 13:30:58;;;;;;;7.35;2.00;;;;;;;;;;5060274;28;20177;-89
2021/10/07 13:33:25;;;;;;;6.80;2.30;;;;;;;;;;5049533;28;20193;-82
2021/10/07 13:35:51;;;;;;;3.70;2.00;;;;;;;;;;5059863;28;20439;-86
2021/10/07 13:38:22;;;;;;;5.60;1.80;;;;;;;;;;5053505;28;20241;-89
2021/10/07 13:40:52;;;;;;;6.70;2.00;;;;;;;;;;5045705;28;20197;-87
2021/10/07 13:43:18;;;;;;;2.33;1.33;;;;;;;;;;5063838;28;20213;-88
2021/10/07 13:45:44;;;;;;;5.03;2.15;;;;;;;;;;5049149;28;20191;-88
2021/10/07 13:48:10;;;;;;;6.40;1.83;;;;;;;;;;5052560;28;20220;-85
2021/10/07 13:50:36;;;;;;;6.22;1.83;;;;;;;;;;5052439;28;20681;-89
2021/10/07 13:53:03;;;;;;;5.15;1.63;;;;;;;;;;5050121;28;20181;-87
2021/10/07 13:55:29;;;;;;;5.63;1.63;;;;;;;;;;5054975;28;20200;-87
2021/10/07 13:57:56;;;;;;;6.75;4.50;;;;;;;;;;5060688;28;20193;-86
2021/10/07 14:00:22;;;;;;;7.15;2.30;;;;;;;;;;5063393;28;20234;-85
2021/10/07 14:02:49;;;;;;;10.48;1.90;;;;;;;;;;5061778;28;20192;-89
2021/10/07 14:05:17;;;;;;;5.88;1.88;;;;;;;;;;5062549;28;20190;-87
2021/10/07 14:07:43;;;;;;;2.30;1.60;;;;;;;;;;5059547;28;20247;-88
2021/10/07 14:10:10;;;;;;;5.60;2.17;;;;;;;;;;5053589;28;20179;-87
2021/10/07 14:12:36;;;;;;;7.72;2.35;;;;;;;;;;5057510;28;20474;-89
2021/10/07 14:15:02;;;;;;;2.60;1.53;;;;;;;;;;5062087;28;20591;-89
2021/10/07 14:17:28;;;;;;;4.47;2.00;;;;;;;;;;5061459;28;20436;-90
2021/10/07 14:19:54;;;;;;;4.20;1.50;;;;;;;;;;5059487;28;20193;-90
2021/10/07 14:22:20;;;;;;;7.70;2.03;;;;;;;;;;5050973;28;20421;-90
2021/10/07 14:24:46;;;;;;;8.52;5.65;;;;;;;;;;5067588;28;20675;-89
2021/10/07 14:27:12;;;;;;;6.72;2.40;;;;;;;;;;5052565;28;20210;-90
2021/10/07 14:29:40;;;;;;;7.80;2.13;;;;;;;;;;5064956;28;20236;-82
2021/10/07 14:32:07;;;;;;;2.47;1.90;;;;;;;;;;5048703;28;20431;-89
2021/10/07 14:34:33;;;;;;;7.15;2.03;;;;;;;;;;5050689;28;20209;-89
2021/10/07 14:36:59;;;;;;;5.43;2.00;;;;;;;;;;5053261;28;20245;-90
2021/10/07 14:39:25;;;;;;;5.87;1.93;;;;;;;;;;5068679;28;20182;-90
2021/10/07 14:41:51;;;;;;;3.10;1.77;;;;;;;;;;5052876;28;20421;-90
2021/10/07 14:44:17;;;;;;;7.13;1.83;;;;;;;;;;5048861;28;20534;-90